Time;durP1;ratioP1;P1;durP2;ratioP2;P2;SDS_P1;SDS_P2;PMS_P1;PMS_P2;Temp;Humidity;BMP_temperature;BMP_pressure;BME280_temperature;BME280_humidity;BME280_pressure;Samples;Min_cycle;Max_cycle;Signal;HPM_P1;HPM_P2
2023/07/25 00:00:19;;;;;;;7.75;5.55;;;;;;;14.44;90.34;100580.72;5091829;28;20031;-68
2023/07/25 00:02:45;;;;;;;9.77;6.43;;;;;;;14.35;91.11;100568.13;5108627;28;20032;-68
2023/07/25 00:05:10;;;;;;;11.18;6.10;;;;;;;14.26;91.40;100581.28;5111106;28;20031;-68
2023/07/25 00:07:36;;;;;;;10.80;6.05;;;;;;;14.23;91.72;100586.03;5109367;28;20062;-68
2023/07/25 00:10:01;;;;;;;9.20;6.10;;;;;;;14.29;90.88;100586.41;5110762;28;20444;-68
2023/07/25 00:12:26;;;;;;;9.80;7.00;;;;;;;14.30;91.26;100573.88;5091973;28;20032;-67
2023/07/25 00:14:54;;;;;;;8.30;6.30;;;;;;;14.22;91.50;100577.19;5093236;28;20052;-68
2023/07/25 00:17:19;;;;;;;8.52;7.05;;;;;;;14.14;91.39;100565.41;5093458;28;20024;-68
2023/07/25 00:19:45;;;;;;;8.85;6.68;;;;;;;14.22;91.04;100584.34;5111781;28;20474;-68
2023/07/25 00:22:10;;;;;;;8.23;6.40;;;;;;;14.28;90.58;100587.38;5111377;28;20058;-67
2023/07/25 00:24:38;;;;;;;7.70;6.88;;;;;;;14.33;91.06;100584.31;5093014;28;20027;-68
2023/07/25 00:27:03;;;;;;;7.45;6.28;;;;;;;14.31;91.18;100581.75;5095067;28;20037;-67
2023/07/25 00:29:31;;;;;;;10.35;6.93;;;;;;;14.25;91.01;100581.44;5115516;28;20024;-68
2023/07/25 00:31:56;;;;;;;11.25;7.10;;;;;;;14.21;91.80;100580.84;5115217;28;20027;-68
2023/07/25 00:34:22;;;;;;;9.43;6.75;;;;;;;14.19;91.90;100577.44;5097162;28;20022;-68
2023/07/25 00:36:49;;;;;;;10.80;7.13;;;;;;;14.16;91.87;100577.69;5115681;28;20030;-68
2023/07/25 00:39:15;;;;;;;9.30;6.78;;;;;;;14.16;91.43;100575.00;5115121;28;20028;-68
2023/07/25 00:41:40;;;;;;;8.27;6.30;;;;;;;14.08;91.63;100572.13;5115555;28;20072;-68
2023/07/25 00:44:05;;;;;;;10.00;6.65;;;;;;;14.05;91.45;100580.38;5113470;28;20035;-68
2023/07/25 00:46:31;;;;;;;6.82;6.10;;;;;;;14.11;91.50;100587.91;5114127;28;20403;-68
2023/07/25 00:48:56;;;;;;;10.77;6.78;;;;;;;14.09;91.71;100589.88;5115382;28;20184;-68
2023/07/25 00:51:22;;;;;;;10.00;6.70;;;;;;;14.08;92.04;100572.94;5111100;28;20485;-68
2023/07/25 00:53:50;;;;;;;7.13;6.43;;;;;;;14.05;91.72;100570.53;5112530;28;20030;-67
2023/07/25 00:56:16;;;;;;;8.50;6.55;;;;;;;14.09;91.77;100574.69;5096735;28;20028;-68
2023/07/25 00:58:44;;;;;;;10.50;6.22;;;;;;;14.09;91.53;100584.53;5114209;28;20026;-68
2023/07/25 01:01:09;;;;;;;6.75;6.15;;;;;;;14.02;91.74;100584.16;5114723;28;20494;-68
2023/07/25 01:03:37;;;;;;;7.80;6.22;;;;;;;13.95;92.00;100579.47;5112038;28;20089;-68
2023/07/25 01:06:04;;;;;;;8.30;6.93;;;;;;;14.04;92.26;100574.19;5112664;28;20486;-68
2023/07/25 01:08:30;;;;;;;6.95;6.35;;;;;;;13.99;92.58;100570.19;5113292;28;20549;-68
2023/07/25 01:10:55;;;;;;;10.98;7.72;;;;;;;13.94;92.91;100573.25;5113133;28;20098;-68
2023/07/25 01:13:21;;;;;;;8.93;6.95;;;;;;;14.04;92.58;100576.03;5113091;28;20398;-67
2023/07/25 01:15:51;;;;;;;8.93;6.28;;;;;;;13.93;92.89;100573.38;5114599;28;20035;-68
2023/07/25 01:18:18;;;;;;;8.73;6.95;;;;;;;13.92;92.70;100544.94;5114861;28;20019;-68
2023/07/25 01:20:46;;;;;;;8.27;7.32;;;;;;;14.00;93.18;100575.44;5097064;28;20031;-68
2023/07/25 01:23:13;;;;;;;8.10;7.10;;;;;;;13.84;93.68;100561.59;5096059;28;20530;-68
2023/07/25 01:25:39;;;;;;;7.78;6.57;;;;;;;13.93;93.79;100570.69;5113709;28;20027;-68
2023/07/25 01:28:05;;;;;;;9.52;6.85;;;;;;;13.88;93.20;100580.91;5114732;28;20043;-68
2023/07/25 01:30:30;;;;;;;7.75;6.95;;;;;;;13.96;93.07;100575.78;5095631;28;20111;-68
2023/07/25 01:32:56;;;;;;;9.45;6.75;;;;;;;13.85;93.17;100557.94;5096350;28;20090;-68
2023/07/25 01:35:24;;;;;;;8.80;7.13;;;;;;;13.69;93.57;100563.69;5114064;28;20026;-67
2023/07/25 01:37:49;;;;;;;8.00;7.07;;;;;;;13.85;93.24;100558.81;5113856;28;20061;-68
2023/07/25 01:40:15;;;;;;;9.18;6.70;;;;;;;13.87;92.92;100561.34;5113242;28;20023;-68
2023/07/25 01:42:42;;;;;;;11.20;6.85;;;;;;;13.79;92.95;100553.94;5095018;28;20542;-68
2023/07/25 01:45:08;;;;;;;7.80;7.07;;;;;;;13.82;92.59;100559.06;5112196;28;20027;-68
2023/07/25 01:47:34;;;;;;;9.25;7.57;;;;;;;13.77;92.91;100558.59;5111356;28;20624;-68
2023/07/25 01:49:59;;;;;;;11.45;7.32;;;;;;;13.71;92.28;100553.75;5113077;28;20051;-68
2023/07/25 01:52:24;;;;;;;10.57;7.85;;;;;;;13.70;92.64;100551.19;5112740;28;20035;-67
2023/07/25 01:54:52;;;;;;;8.63;7.07;;;;;;;13.62;92.94;100550.00;5092972;28;20084;-68
2023/07/25 01:57:17;;;;;;;8.57;7.72;;;;;;;13.61;92.55;100550.09;5112509;28;20114;-68
2023/07/25 01:59:43;;;;;;;11.57;7.20;;;;;;;13.51;92.76;100535.78;5094833;28;20098;-68
2023/07/25 02:02:08;;;;;;;8.07;7.28;;;;;;;13.50;93.33;100552.78;5114038;28;20031;-68
2023/07/25 02:04:34;;;;;;;8.23;7.55;;;;;;;13.56;92.93;100544.25;5111684;28;20024;-68
2023/07/25 02:06:59;;;;;;;8.30;7.50;;;;;;;13.46;93.89;100532.63;5091644;28;20030;-68
2023/07/25 02:09:25;;;;;;;7.93;7.13;;;;;;;13.46;93.69;100538.81;5111736;28;20035;-68
2023/07/25 02:11:50;;;;;;;9.10;7.40;;;;;;;13.41;93.91;100535.66;5113069;28;20390;-67
2023/07/25 02:14:15;;;;;;;9.75;7.65;;;;;;;13.38;93.29;100530.56;5093532;28;20111;-68
2023/07/25 02:16:43;;;;;;;8.98;7.43;;;;;;;13.45;92.98;100544.31;5112587;28;20020;-68
2023/07/25 02:19:08;;;;;;;8.63;6.90;;;;;;;13.37;92.85;100537.72;5111799;28;20028;-68
2023/07/25 02:21:34;;;;;;;9.35;7.68;;;;;;;13.17;93.56;100541.94;5094054;28;20111;-67
2023/07/25 02:24:00;;;;;;;8.07;7.13;;;;;;;13.01;93.76;100527.28;5112806;28;20030;-68
2023/07/25 02:26:25;;;;;;;8.82;7.25;;;;;;;13.18;93.82;100538.31;5112590;28;20073;-68
2023/07/25 02:28:51;;;;;;;9.20;7.47;;;;;;;13.22;93.73;100538.94;5110857;28;20027;-68
2023/07/25 02:31:16;;;;;;;8.80;7.90;;;;;;;13.21;93.84;100534.56;5112375;28;20015;-68
2023/07/25 02:33:42;;;;;;;8.07;7.25;;;;;;;13.21;93.69;100536.34;5112361;28;20390;-68
2023/07/25 02:36:07;;;;;;;8.13;7.35;;;;;;;13.18;93.79;100537.47;5093988;28;20115;-68
2023/07/25 02:38:33;;;;;;;8.23;7.45;;;;;;;13.06;93.57;100523.28;5110540;28;20034;-68
2023/07/25 02:41:01;;;;;;;9.88;7.75;;;;;;;13.15;93.40;100537.72;5111399;28;20555;-68
2023/07/25 02:43:26;;;;;;;7.80;7.03;;;;;;;13.10;93.84;100535.41;5093641;28;20034;-68
2023/07/25 02:45:52;;;;;;;10.70;7.95;;;;;;;13.04;94.15;100525.22;5093796;28;20024;-68
2023/07/25 02:48:18;;;;;;;8.57;7.68;;;;;;;13.12;94.62;100540.63;5112302;28;20028;-68
2023/07/25 02:50:44;;;;;;;10.73;8.52;;;;;;;13.10;94.69;100543.41;5111713;28;20959;-68
2023/07/25 02:53:09;;;;;;;8.52;7.82;;;;;;;13.12;94.59;100544.16;5094410;28;20026;-68
2023/07/25 02:55:34;;;;;;;8.07;7.30;;;;;;;13.15;94.82;100541.25;5111153;28;20030;-68
2023/07/25 02:58:02;;;;;;;5.70;4.80;;;;;;;13.32;94.22;100544.41;5091666;28;20062;-68
2023/07/25 03:00:28;;;;;;;13.68;8.57;;;;;;;13.12;94.94;100538.81;5111962;28;20023;-68
2023/07/25 03:02:56;;;;;;;8.68;7.80;;;;;;;13.16;94.88;100534.06;5090722;28;20031;-68
2023/07/25 03:05:21;;;;;;;8.40;7.50;;;;;;;13.15;95.25;100535.91;5112335;28;20199;-68
2023/07/25 03:07:47;;;;;;;9.65;8.40;;;;;;;13.17;95.61;100530.41;5112295;28;20114;-68
2023/07/25 03:10:12;;;;;;;9.43;8.35;;;;;;;13.19;95.77;100534.69;5111616;28;20080;-68
2023/07/25 03:12:38;;;;;;;9.23;8.23;;;;;;;13.12;96.03;100541.47;5111739;28;20410;-68
2023/07/25 03:15:04;;;;;;;9.32;8.35;;;;;;;13.23;96.17;100545.97;5112008;28;20015;-68
2023/07/25 03:17:30;;;;;;;9.80;7.93;;;;;;;13.20;96.38;100532.84;5093905;28;20114;-68
2023/07/25 03:19:56;;;;;;;11.30;8.88;;;;;;;13.27;96.41;100536.78;5111981;28;20023;-68
2023/07/25 03:22:21;;;;;;;9.10;8.20;;;;;;;13.12;96.68;100519.28;5093593;28;20066;-68
2023/07/25 03:24:49;;;;;;;10.93;8.52;;;;;;;13.30;97.08;100538.38;5111602;28;20487;-68
2023/07/25 03:27:16;;;;;;;10.35;8.75;;;;;;;13.30;96.82;100531.19;5093378;28;20592;-68
2023/07/25 03:29:42;;;;;;;9.13;7.80;;;;;;;13.34;96.91;100526.44;5093457;28;20042;-68
2023/07/25 03:32:07;;;;;;;9.82;8.43;;;;;;;13.34;97.15;100521.94;5112093;28;20032;-68
2023/07/25 03:34:33;;;;;;;10.65;8.77;;;;;;;13.37;96.85;100528.88;5093472;28;20027;-68
2023/07/25 03:36:58;;;;;;;11.43;9.13;;;;;;;13.39;96.52;100530.47;5093595;28;20477;-68
2023/07/25 03:39:23;;;;;;;10.35;8.88;;;;;;;13.28;97.41;100526.94;5111676;28;20152;-68
2023/07/25 03:41:49;;;;;;;10.32;8.20;;;;;;;13.36;97.73;100520.00;5090852;28;20027;-68
2023/07/25 03:44:19;;;;;;;10.73;8.60;;;;;;;13.31;97.47;100518.69;5111354;28;20023;-68
2023/07/25 03:46:44;;;;;;;12.68;8.57;;;;;;;13.29;96.84;100518.78;5092498;28;20024;-68
2023/07/25 03:49:10;;;;;;;11.45;4.82;;;;;;;13.51;96.60;100535.78;5111139;28;20080;-68
2023/07/25 03:51:36;;;;;;;9.82;8.82;;;;;;;13.38;97.04;100522.53;5109234;28;20028;-68
2023/07/25 03:54:03;;;;;;;10.90;8.30;;;;;;;13.24;97.33;100514.78;5093337;28;20016;-68
2023/07/25 03:56:31;;;;;;;9.25;8.25;;;;;;;13.30;97.22;100528.53;5109880;28;20474;-68
2023/07/25 03:58:56;;;;;;;9.93;8.77;;;;;;;13.29;97.11;100532.16;5111976;28;20023;-68
2023/07/25 04:01:22;;;;;;;9.27;8.27;;;;;;;13.27;97.03;100534.09;5110462;28;20027;-68
2023/07/25 04:03:47;;;;;;;12.13;8.90;;;;;;;13.26;96.77;100542.22;5093829;28;20381;-68
2023/07/25 04:06:14;;;;;;;10.35;8.57;;;;;;;13.26;97.06;100526.19;5114941;28;20032;-67
2023/07/25 04:08:39;;;;;;;9.52;7.82;;;;;;;13.23;97.54;100540.63;5094411;28;20035;-68
2023/07/25 04:11:04;;;;;;;10.60;8.10;;;;;;;13.24;97.33;100531.66;5113571;28;20096;-68
2023/07/25 04:13:30;;;;;;;12.23;8.65;;;;;;;13.26;97.06;100534.22;5114755;28;20028;-68
2023/07/25 04:15:55;;;;;;;9.32;8.10;;;;;;;13.21;97.07;100536.34;5114756;28;20024;-68
2023/07/25 04:18:21;;;;;;;8.10;7.50;;;;;;;13.25;97.13;100532.50;5096607;28;20023;-68
2023/07/25 04:20:46;;;;;;;9.88;8.85;;;;;;;13.18;97.24;100513.44;5112837;28;20364;-68
2023/07/25 04:23:12;;;;;;;10.85;8.25;;;;;;;13.23;97.31;100529.94;5113415;28;20782;-68
2023/07/25 04:25:37;;;;;;;14.00;8.30;;;;;;;13.12;97.87;100537.97;5113018;28;20157;-68
2023/07/25 04:28:03;;;;;;;9.90;8.90;;;;;;;13.01;98.62;100519.25;5113518;28;20028;-68
2023/07/25 04:30:28;;;;;;;9.27;8.52;;;;;;;13.15;98.15;100524.38;5114610;28;20462;-68
2023/07/25 04:32:54;;;;;;;12.00;8.10;;;;;;;13.13;98.47;100537.84;5114650;28;20038;-68
2023/07/25 04:35:19;;;;;;;11.60;8.93;;;;;;;13.15;98.28;100532.38;5114404;28;20028;-68
2023/07/25 04:37:44;;;;;;;9.15;8.23;;;;;;;13.08;99.18;100526.66;5095315;28;20034;-68
2023/07/25 04:40:10;;;;;;;8.73;8.02;;;;;;;13.18;98.89;100530.31;5113352;28;20386;-68
2023/07/25 04:42:35;;;;;;;10.38;9.40;;;;;;;13.25;99.06;100537.84;5112954;28;20114;-67
2023/07/25 04:45:03;;;;;;;9.35;7.93;;;;;;;13.26;99.66;100547.56;5096142;28;20031;-67
2023/07/25 04:47:28;;;;;;;9.60;8.70;;;;;;;13.27;99.29;100539.44;5114121;28;20030;-68
2023/07/25 04:49:54;;;;;;;9.60;8.70;;;;;;;13.24;99.26;100528.13;5110908;28;20107;-67
2023/07/25 04:52:19;;;;;;;11.05;8.80;;;;;;;13.34;99.80;100535.31;5095344;28;20107;-68
2023/07/25 04:54:44;;;;;;;12.57;8.60;;;;;;;13.36;99.62;100529.84;5095895;28;20368;-68
2023/07/25 04:57:10;;;;;;;11.20;8.25;;;;;;;13.44;99.34;100527.41;5095163;28;20382;-68
2023/07/25 04:59:35;;;;;;;11.30;8.95;;;;;;;13.45;98.75;100526.44;5112532;28;20450;-68
2023/07/25 05:02:00;;;;;;;10.93;9.13;;;;;;;13.45;99.31;100528.28;5114698;28;20103;-68
2023/07/25 05:04:26;;;;;;;10.65;9.65;;;;;;;13.48;98.83;100520.84;5114583;28;20114;-67
2023/07/25 05:06:52;;;;;;;11.15;8.98;;;;;;;13.56;98.81;100528.22;5113204;28;20023;-68
2023/07/25 05:09:19;;;;;;;12.88;9.32;;;;;;;13.67;98.54;100536.22;5113883;28;20041;-68
2023/07/25 05:11:47;;;;;;;15.55;9.50;;;;;;;13.73;98.61;100546.44;5114556;28;20023;-68
2023/07/25 05:14:12;;;;;;;16.00;8.93;;;;;;;13.56;97.47;100537.13;5096479;28;20054;-68
2023/07/25 05:16:38;;;;;;;15.25;9.15;;;;;;;13.62;98.01;100541.97;5114256;28;20466;-68
2023/07/25 05:19:03;;;;;;;13.15;8.85;;;;;;;13.69;96.97;100534.31;5114395;28;20073;-68
2023/07/25 05:21:28;;;;;;;15.80;9.45;;;;;;;13.69;97.05;100545.00;5114032;28;20020;-67
2023/07/25 05:23:55;;;;;;;13.98;8.68;;;;;;;13.76;96.70;100542.66;5112168;28;20130;-68
2023/07/25 05:26:20;;;;;;;11.57;8.20;;;;;;;13.81;96.42;100538.63;5114563;28;20031;-68
2023/07/25 05:28:46;;;;;;;12.55;8.57;;;;;;;13.85;96.17;100541.91;5094084;28;20020;-68
2023/07/25 05:31:11;;;;;;;12.18;8.43;;;;;;;13.84;97.32;100535.72;5113707;28;20068;-68
2023/07/25 05:33:39;;;;;;;13.13;7.75;;;;;;;13.93;96.66;100555.50;5113763;28;20027;-68
2023/07/25 05:36:04;;;;;;;12.55;8.32;;;;;;;13.93;96.36;100552.81;5095689;28;20474;-68
2023/07/25 05:38:30;;;;;;;12.50;8.30;;;;;;;13.98;95.42;100549.78;5112542;28;20018;-68
2023/07/25 05:40:56;;;;;;;15.30;7.93;;;;;;;13.91;95.56;100556.59;5114213;28;20458;-67
2023/07/25 05:43:21;;;;;;;15.68;7.97;;;;;;;13.99;95.95;100556.81;5092263;28;20034;-68
2023/07/25 05:45:47;;;;;;;15.57;7.45;;;;;;;14.00;96.56;100559.38;5095058;28;20024;-68
2023/07/25 05:48:12;;;;;;;11.30;8.52;;;;;;;14.09;94.87;100561.31;5112443;28;20107;-67
2023/07/25 05:50:37;;;;;;;16.05;7.78;;;;;;;14.08;95.42;100548.88;5112303;28;20406;-67
2023/07/25 05:53:03;;;;;;;16.10;7.72;;;;;;;14.17;95.27;100567.84;5112666;28;20033;-68
2023/07/25 05:55:28;;;;;;;11.43;7.57;;;;;;;14.17;94.51;100560.66;5113113;28;20039;-68
2023/07/25 05:57:54;;;;;;;13.38;7.25;;;;;;;14.17;94.31;100551.78;5094550;28;20030;-68
2023/07/25 06:00:19;;;;;;;12.68;7.15;;;;;;;14.20;93.90;100552.38;5092805;28;20371;-68
2023/07/25 06:02:45;;;;;;;11.50;7.57;;;;;;;14.21;94.86;100547.91;5093114;28;20028;-68
2023/07/25 06:05:10;;;;;;;13.40;7.72;;;;;;;14.35;93.92;100557.41;5091516;28;20554;-68
2023/07/25 06:07:35;;;;;;;18.75;7.47;;;;;;;14.30;94.24;100558.66;5113420;28;20072;-67
2023/07/25 06:10:01;;;;;;;12.90;6.80;;;;;;;14.40;94.00;100563.25;5095019;28;20474;-68
2023/07/25 06:12:26;;;;;;;11.65;6.95;;;;;;;14.40;94.09;100556.06;5094800;28;20031;-68
2023/07/25 06:14:51;;;;;;;13.13;7.22;;;;;;;14.46;93.48;100560.91;5095287;28;20490;-68
2023/07/25 06:17:17;;;;;;;12.40;6.88;;;;;;;14.53;93.48;100555.94;5095364;28;20037;-67
2023/07/25 06:19:42;;;;;;;14.02;6.32;;;;;;;14.45;92.52;100548.50;5094104;28;20023;-67
2023/07/25 06:22:09;;;;;;;11.27;6.20;;;;;;;14.54;92.60;100569.16;5113014;28;20048;-67
2023/07/25 06:24:34;;;;;;;8.90;5.95;;;;;;;14.50;92.20;100559.69;5093160;28;20035;-68
2023/07/25 06:27:00;;;;;;;12.13;5.82;;;;;;;14.52;91.54;100563.09;5113386;28;20482;-68
2023/07/25 06:29:25;;;;;;;10.98;5.50;;;;;;;14.58;92.31;100575.09;5112994;28;20051;-67
2023/07/25 06:31:51;;;;;;;15.57;5.45;;;;;;;14.46;91.96;100549.34;5112774;28;20031;-67
2023/07/25 06:34:16;;;;;;;7.70;5.15;;;;;;;14.62;91.30;100571.22;5113465;28;20359;-67
2023/07/25 06:36:42;;;;;;;12.90;5.75;;;;;;;14.65;91.32;100578.97;5113034;28;20030;-68
2023/07/25 06:39:07;;;;;;;12.68;5.07;;;;;;;14.67;92.57;100570.81;5110633;28;20028;-68
2023/07/25 06:41:33;;;;;;;8.35;4.97;;;;;;;14.73;91.91;100571.13;5111904;28;20035;-68
2023/07/25 06:43:59;;;;;;;12.25;5.65;;;;;;;14.79;91.68;100560.88;5110964;28;20030;-68
2023/07/25 06:46:24;;;;;;;8.35;4.78;;;;;;;15.03;91.50;100582.91;5092351;28;20024;-68
2023/07/25 06:48:52;;;;;;;13.20;5.18;;;;;;;15.20;91.13;100568.03;5108367;28;20024;-68
2023/07/25 06:51:21;;;;;;;12.75;5.45;;;;;;;15.36;90.90;100572.91;5111899;28;20023;-68
2023/07/25 06:53:46;;;;;;;7.27;5.03;;;;;;;15.42;90.32;100570.53;5111238;28;20707;-68
2023/07/25 06:56:12;;;;;;;15.00;5.38;;;;;;;15.52;89.31;100575.91;5112660;28;20020;-68
2023/07/25 06:58:37;;;;;;;9.45;5.28;;;;;;;15.65;89.11;100571.19;5112380;28;20019;-67
2023/07/25 07:01:02;;;;;;;11.15;5.90;;;;;;;15.79;88.11;100572.66;5092592;28;20022;-68
2023/07/25 07:03:28;;;;;;;13.35;5.65;;;;;;;15.79;87.24;100571.81;5092508;28;20733;-68
2023/07/25 07:05:56;;;;;;;13.75;5.60;;;;;;;15.86;87.57;100573.81;5112643;28;20012;-68
2023/07/25 07:08:22;;;;;;;17.80;5.60;;;;;;;15.96;86.77;100576.50;5112101;28;20475;-68
2023/07/25 07:10:55;;;;;;;13.82;5.38;;;;;;;16.04;84.94;100590.06;5112581;28;20394;-68
2023/07/25 07:13:22;;;;;;;26.60;5.75;;;;;;;16.10;83.99;100589.53;5110290;28;20073;-68
2023/07/25 07:15:48;;;;;;;18.95;5.28;;;;;;;16.31;84.46;100585.88;5112241;28;20055;-68
2023/07/25 07:18:14;;;;;;;19.25;5.03;;;;;;;16.33;85.16;100586.59;5094095;28;20024;-68
2023/07/25 07:20:43;;;;;;;17.38;4.70;;;;;;;16.41;82.65;100594.75;5107723;28;20023;-69
2023/07/25 07:23:11;;;;;;;18.45;5.88;;;;;;;16.27;83.00;100569.22;5109785;28;20451;-68
2023/07/25 07:25:38;;;;;;;19.83;4.90;;;;;;;16.41;81.58;100601.97;5111520;28;20020;-68
2023/07/25 07:28:04;;;;;;;17.52;5.25;;;;;;;16.28;82.14;100595.03;5091220;27;20455;-68
2023/07/25 07:30:29;;;;;;;14.65;4.28;;;;;;;16.23;82.16;100596.44;5091312;28;20032;-68
2023/07/25 07:32:56;;;;;;;11.52;3.53;;;;;;;16.17;82.07;100589.81;5107063;28;20031;-68
2023/07/25 07:35:21;;;;;;;12.20;3.85;;;;;;;16.04;81.12;100595.44;5108265;28;20028;-68
2023/07/25 07:37:47;;;;;;;23.88;4.50;;;;;;;16.09;81.35;100598.56;5110021;28;20394;-68
2023/07/25 07:40:12;;;;;;;10.73;3.42;;;;;;;16.08;78.71;100601.38;5092940;28;20023;-70
2023/07/25 07:42:38;;;;;;;12.15;3.83;;;;;;;16.03;79.21;100601.81;5111171;28;20378;-67
2023/07/25 07:45:04;;;;;;;11.60;3.72;;;;;;;16.07;79.87;100605.06;5093022;28;20030;-68
2023/07/25 07:47:29;;;;;;;16.63;4.45;;;;;;;16.10;78.23;100610.97;5111211;28;20019;-68
2023/07/25 07:49:55;;;;;;;9.60;4.10;;;;;;;16.07;78.80;100610.41;5088770;28;20045;-67
2023/07/25 07:52:20;;;;;;;7.20;3.67;;;;;;;16.04;79.17;100616.91;5108493;28;20035;-68
2023/07/25 07:54:45;;;;;;;10.00;4.18;;;;;;;16.00;79.01;100617.31;5110332;28;20094;-68
2023/07/25 07:57:11;;;;;;;8.75;3.80;;;;;;;15.96;78.41;100616.75;5111448;28;20024;-68
2023/07/25 07:59:36;;;;;;;10.15;3.60;;;;;;;15.87;79.96;100606.84;5107608;28;20358;-68
2023/07/25 08:02:02;;;;;;;9.10;3.72;;;;;;;15.79;79.17;100617.38;5092125;28;20036;-68
2023/07/25 08:04:27;;;;;;;8.57;3.53;;;;;;;15.80;78.89;100622.63;5088396;28;20035;-68
2023/07/25 08:06:53;;;;;;;8.88;3.45;;;;;;;15.88;79.61;100627.28;5106152;28;20027;-67
2023/07/25 08:09:18;;;;;;;11.55;4.28;;;;;;;16.06;77.16;100630.16;5106123;28;20494;-68
2023/07/25 08:11:46;;;;;;;8.73;3.67;;;;;;;16.09;76.46;100636.13;5106656;28;20062;-68
2023/07/25 08:14:11;;;;;;;7.43;3.28;;;;;;;16.20;77.42;100621.72;5110939;28;20035;-68
2023/07/25 08:16:36;;;;;;;10.07;3.70;;;;;;;16.31;76.98;100620.75;5111099;28;20032;-68
2023/07/25 08:19:02;;;;;;;7.70;3.22;;;;;;;16.60;76.09;100630.69;5110742;28;20551;-68
2023/07/25 08:21:29;;;;;;;22.35;4.53;;;;;;;16.75;75.26;100629.25;5093146;28;20023;-68
2023/07/25 08:23:55;;;;;;;8.15;3.13;;;;;;;16.90;73.67;100629.69;5110501;28;20409;-68
2023/07/25 08:26:20;;;;;;;7.32;3.20;;;;;;;16.79;72.82;100626.19;5110263;28;20016;-67
2023/07/25 08:28:45;;;;;;;10.75;3.03;;;;;;;16.90;71.80;100635.91;5110254;28;20501;-68
2023/07/25 08:31:11;;;;;;;8.48;3.30;;;;;;;16.99;70.85;100637.75;5109997;28;20073;-68
2023/07/25 08:33:42;;;;;;;10.38;3.05;;;;;;;17.08;70.04;100648.63;5108558;28;20067;-68
2023/07/25 08:36:08;;;;;;;6.90;2.90;;;;;;;17.07;68.69;100637.03;5110912;28;20050;-68
2023/07/25 08:38:34;;;;;;;10.25;3.65;;;;;;;17.31;70.87;100641.09;5109819;28;20027;-68
2023/07/25 08:41:12;;;;;;;9.93;3.70;;;;;;;17.62;70.20;100647.94;5110145;28;20028;-68
2023/07/25 08:43:41;;;;;;;9.35;2.85;;;;;;;17.94;67.16;100649.34;5110546;28;20035;-68
2023/07/25 08:46:10;;;;;;;10.13;3.17;;;;;;;18.12;65.37;100646.75;5107186;28;20020;-68
2023/07/25 08:48:40;;;;;;;5.55;2.50;;;;;;;18.32;65.45;100656.38;5107771;27;20471;-68
2023/07/25 08:51:22;;;;;;;9.25;2.80;;;;;;;18.59;65.44;100660.88;5112707;27;20051;-68
2023/07/25 08:54:11;;;;;;;5.28;3.10;;;;;;;18.83;63.64;100659.44;5112959;28;20106;-68
2023/07/25 08:56:38;;;;;;;5.25;2.90;;;;;;;18.82;61.29;100657.72;5110982;28;20055;-68
2023/07/25 08:59:05;;;;;;;6.20;2.70;;;;;;;19.05;61.15;100658.94;5114594;28;20448;-68
2023/07/25 09:01:31;;;;;;;7.25;2.70;;;;;;;19.28;61.37;100663.81;5096818;28;20074;-68
2023/07/25 09:03:58;;;;;;;6.60;3.15;;;;;;;19.25;61.57;100662.28;5095070;28;20023;-68
2023/07/25 09:06:27;;;;;;;14.88;3.08;;;;;;;19.41;62.33;100656.19;5114600;28;20095;-68
2023/07/25 09:08:53;;;;;;;6.60;3.05;;;;;;;19.27;59.14;100662.16;5103724;28;20055;-68
2023/07/25 09:11:20;;;;;;;14.57;4.00;;;;;;;19.33;59.57;100656.13;5101890;28;20474;-68
2023/07/25 09:13:47;;;;;;;8.00;3.13;;;;;;;19.52;60.14;100653.19;5095891;28;20031;-68
2023/07/25 09:16:13;;;;;;;10.25;3.00;;;;;;;19.52;58.53;100653.19;5115007;28;20056;-68
2023/07/25 09:18:38;;;;;;;5.53;3.03;;;;;;;19.83;57.18;100663.50;5114552;28;20453;-68
2023/07/25 09:21:04;;;;;;;5.32;2.90;;;;;;;19.98;57.09;100663.75;5115036;28;20077;-68
2023/07/25 09:23:32;;;;;;;6.00;2.95;;;;;;;20.10;56.07;100657.03;5095407;28;20036;-68
2023/07/25 09:26:05;;;;;;;4.72;2.35;;;;;;;20.10;57.12;100670.53;5107924;28;20034;-68
2023/07/25 09:28:33;;;;;;;6.70;2.70;;;;;;;19.81;55.67;100668.22;5096026;28;20028;-68
2023/07/25 09:31:05;;;;;;;9.07;2.92;;;;;;;19.45;56.68;100670.19;5096064;28;20543;-68
2023/07/25 09:33:31;;;;;;;6.72;2.72;;;;;;;19.19;55.37;100670.16;5113933;28;20406;-68
2023/07/25 09:35:57;;;;;;;8.10;2.85;;;;;;;18.93;57.15;100667.44;5095687;28;20027;-68
2023/07/25 09:38:23;;;;;;;5.85;2.30;;;;;;;18.91;56.29;100667.56;5113847;28;20023;-69
2023/07/25 09:40:49;;;;;;;4.82;2.75;;;;;;;18.90;56.93;100663.19;5114118;28;20028;-68
2023/07/25 09:43:24;;;;;;;5.85;2.78;;;;;;;18.91;57.31;100667.56;5114226;28;20374;-68
2023/07/25 09:45:53;;;;;;;5.90;2.60;;;;;;;18.85;57.74;100678.97;5113920;28;20036;-68
2023/07/25 09:48:19;;;;;;;;;;;;;;;19.09;59.85;100682.88;5079328;28;20094;-68
2023/07/25 09:50:45;;;;;;;9.25;3.33;;;;;;;18.74;60.77;100674.69;5114117;28;19960;-68
2023/07/25 09:53:16;;;;;;;6.43;2.40;;;;;;;18.64;60.87;100683.78;5095518;28;20080;-68
2023/07/25 09:55:42;;;;;;;6.90;3.25;;;;;;;18.75;60.83;100680.91;5094898;28;20027;-68
2023/07/25 09:58:08;;;;;;;10.10;3.58;;;;;;;19.18;58.82;100680.13;5113643;28;20051;-68
2023/07/25 10:00:34;;;;;;;8.32;3.22;;;;;;;19.61;56.06;100664.03;5112752;28;20454;-68
2023/07/25 10:02:59;;;;;;;5.43;2.95;;;;;;;19.89;56.24;100659.31;5095538;28;20028;-68
2023/07/25 10:05:28;;;;;;;7.20;2.60;;;;;;;20.22;54.29;100672.94;5095156;28;20391;-68
2023/07/25 10:07:55;;;;;;;9.50;3.22;;;;;;;20.12;55.21;100673.09;5095519;28;20023;-68
2023/07/25 10:10:21;;;;;;;9.00;2.70;;;;;;;20.10;56.65;100675.94;5113253;28;20028;-68
2023/07/25 10:12:47;;;;;;;6.85;2.42;;;;;;;20.09;54.76;100665.28;5113313;28;20481;-68
2023/07/25 10:15:13;;;;;;;6.03;2.50;;;;;;;20.12;55.95;100670.41;5113861;28;20160;-68
2023/07/25 10:17:38;;;;;;;5.80;2.58;;;;;;;20.00;55.29;100672.53;5113519;28;20026;-68
2023/07/25 10:20:07;;;;;;;7.03;2.40;;;;;;;20.03;55.00;100666.81;5095170;28;20106;-68
2023/07/25 10:22:33;;;;;;;;;;;;;;;20.40;56.70;100679.91;5113509;28;20096;-68
2023/07/25 10:24:58;;;;;;;6.25;2.63;;;;;;;20.26;55.38;100675.13;5094521;28;19915;-68
2023/07/25 10:27:24;;;;;;;7.97;2.88;;;;;;;20.57;52.66;100682.69;5094605;28;20099;-68
2023/07/25 10:29:50;;;;;;;5.07;2.53;;;;;;;20.73;50.55;100671.06;5113181;28;20031;-68
2023/07/25 10:32:19;;;;;;;7.50;3.10;;;;;;;21.05;50.24;100681.88;5094907;28;20076;-68
2023/07/25 10:35:03;;;;;;;4.85;2.50;;;;;;;21.33;51.45;100676.97;5094865;28;20363;-68
2023/07/25 10:37:36;;;;;;;7.50;2.83;;;;;;;21.35;47.93;100665.97;5112653;28;20383;-68
2023/07/25 10:40:04;;;;;;;5.85;2.47;;;;;;;21.66;48.56;100673.41;5112391;28;20134;-68
2023/07/25 10:42:50;;;;;;;7.45;2.60;;;;;;;21.88;50.78;100669.91;5112864;28;20095;-68
2023/07/25 10:45:46;;;;;;;5.35;2.35;;;;;;;21.85;51.32;100677.56;5097736;28;20069;-68
2023/07/25 10:48:28;;;;;;;6.57;2.47;;;;;;;21.44;51.02;100667.69;5105933;28;20035;-68
2023/07/25 10:50:54;;;;;;;8.48;2.20;;;;;;;20.89;50.73;100689.16;5112786;28;20028;-68
2023/07/25 10:53:21;;;;;;;7.47;2.90;;;;;;;20.43;52.17;100685.00;5112597;28;20387;-68
2023/07/25 10:56:07;;;;;;;4.72;2.55;;;;;;;20.14;53.69;100684.56;5094384;28;20528;-68
2023/07/25 10:59:11;;;;;;;9.73;2.50;;;;;;;19.91;54.19;100677.06;5112425;28;20035;-68
2023/07/25 11:01:44;;;;;;;6.82;2.80;;;;;;;20.05;51.62;100672.03;5112722;28;20163;-68
2023/07/25 11:04:22;;;;;;;6.22;2.35;;;;;;;20.59;51.45;100669.88;5112331;28;20076;-68
2023/07/25 11:06:49;;;;;;;6.68;2.10;;;;;;;21.14;49.50;100668.38;5094348;28;20077;-68
2023/07/25 11:09:14;;;;;;;6.15;2.45;;;;;;;21.51;47.15;100670.56;5112194;28;20039;-68
2023/07/25 11:11:47;;;;;;;5.55;2.70;;;;;;;21.82;49.68;100673.31;5112642;28;20027;-68
2023/07/25 11:14:15;;;;;;;5.55;2.40;;;;;;;22.17;47.01;100672.03;5112797;28;20034;-68
2023/07/25 11:16:42;;;;;;;5.35;2.30;;;;;;;22.36;47.58;100665.34;5112521;28;20106;-68
2023/07/25 11:19:09;;;;;;;5.32;2.22;;;;;;;22.49;47.63;100670.16;5112523;28;20028;-68